createdAt,value
2023-05-05T00:01:01.773Z,16.8
2023-05-05T00:06:01.120Z,17.0
2023-05-05T00:11:06.126Z,17.4
2023-05-05T00:16:01.055Z,16.3
2023-05-05T00:21:01.272Z,15.7
2023-05-05T00:26:01.054Z,16.0
2023-05-05T00:31:01.087Z,16.1
2023-05-05T00:36:01.174Z,16.3
2023-05-05T00:41:01.086Z,16.8
2023-05-05T00:46:06.146Z,17.4
2023-05-05T00:51:01.073Z,17.1
2023-05-05T00:56:01.069Z,16.7
2023-05-05T01:01:01.092Z,15.7
2023-05-05T01:06:01.084Z,15.3
2023-05-05T01:11:01.049Z,15.4
2023-05-05T01:16:01.089Z,14.8
2023-05-05T01:21:01.168Z,15.0
2023-05-05T01:26:01.058Z,14.9
2023-05-05T01:31:01.053Z,15.5
2023-05-05T01:36:01.071Z,15.2
2023-05-05T01:41:06.624Z,16.4
2023-05-05T01:46:03.685Z,15.9
2023-05-05T01:51:01.057Z,16.5
2023-05-05T01:56:06.127Z,17.4
2023-05-05T02:06:01.087Z,17.0
2023-05-05T02:11:02.011Z,17.6
2023-05-05T02:16:01.082Z,16.4
2023-05-05T02:21:01.053Z,15.5
2023-05-05T02:31:01.123Z,15.6
2023-05-05T02:36:01.596Z,15.3
2023-05-05T02:41:01.054Z,16.0
2023-05-05T02:46:02.717Z,16.1
2023-05-05T02:51:01.087Z,16.8
2023-05-05T02:56:01.087Z,15.9
2023-05-05T03:01:01.062Z,15.7
2023-05-05T03:06:01.056Z,15.4
2023-05-05T03:11:01.064Z,15.3
2023-05-05T03:16:01.049Z,14.6
2023-05-05T03:21:01.063Z,14.9
2023-05-05T03:26:01.050Z,15.1
2023-05-05T03:31:01.987Z,15.8
2023-05-05T03:36:06.671Z,16.0
2023-05-05T03:41:01.055Z,16.5
2023-05-05T03:46:01.719Z,16.7
2023-05-05T03:51:01.646Z,17.2
2023-05-05T03:56:01.436Z,17.3
2023-05-05T04:01:01.126Z,18.0
2023-05-05T04:06:01.091Z,17.7
2023-05-05T04:11:01.145Z,18.1
2023-05-05T04:16:01.095Z,17.9
2023-05-05T04:21:01.198Z,17.7
2023-05-05T04:26:01.065Z,16.9
2023-05-05T04:31:01.219Z,16.2
2023-05-05T04:36:01.118Z,15.8
2023-05-05T04:41:01.063Z,15.7
2023-05-05T04:46:01.061Z,16.4
2023-05-05T04:51:01.101Z,18.8
2023-05-05T04:56:01.080Z,19.8
2023-05-05T05:01:01.063Z,22.3
2023-05-05T05:06:01.588Z,25.2
2023-05-05T05:11:01.099Z,26.1
2023-05-05T05:16:01.110Z,29.4
2023-05-05T05:21:01.697Z,32.0
2023-05-05T05:45:01.867Z,25.2
2023-05-05T05:50:01.568Z,26.8
2023-05-05T05:55:01.585Z,24.5
2023-05-05T06:00:03.242Z,23.7
2023-05-05T06:05:01.694Z,23.0
2023-05-05T06:10:30.286Z,20.7
2023-05-05T06:15:01.520Z,18.8
2023-05-05T06:20:01.452Z,18.4
2023-05-05T06:25:01.479Z,18.3
2023-05-05T06:30:01.524Z,17.3
2023-05-05T06:35:01.046Z,17.4
2023-05-05T06:40:01.053Z,17.0
2023-05-05T06:45:01.711Z,16.6
2023-05-05T06:50:01.525Z,14.9
2023-05-05T06:55:01.060Z,15.6
2023-05-05T07:00:02.565Z,16.0
2023-05-05T07:05:01.916Z,15.0
2023-05-05T07:10:01.681Z,14.8
2023-05-05T07:15:29.731Z,15.6
2023-05-05T07:20:01.054Z,14.8
2023-05-05T07:25:02.516Z,14.4
2023-05-05T07:30:02.088Z,14.3
2023-05-05T07:35:01.058Z,14.1
2023-05-05T07:40:01.607Z,14.7
2023-05-05T07:45:01.704Z,14.5
2023-05-05T07:50:01.495Z,13.9
2023-05-05T07:55:02.773Z,14.2
2023-05-05T08:00:01.649Z,13.4
2023-05-05T08:05:01.237Z,12.4
2023-05-05T08:15:01.857Z,12.1
2023-05-05T08:20:01.519Z,11.6
2023-05-05T08:25:01.607Z,12.2
2023-05-05T08:30:02.366Z,11.5
2023-05-05T08:35:02.060Z,10.9
2023-05-05T08:40:01.507Z,11.2
2023-05-05T08:45:01.571Z,11.5
2023-05-05T08:50:01.796Z,11.2
2023-05-05T08:55:01.051Z,10.6
2023-05-05T09:00:02.230Z,10.2
2023-05-05T09:05:01.790Z,9.4
2023-05-05T09:10:03.703Z,9.2
2023-05-05T09:15:01.969Z,9.0
2023-05-05T09:25:01.159Z,9.3
2023-05-05T09:30:02.877Z,9.8
2023-05-05T09:35:01.060Z,8.5
2023-05-05T09:40:01.109Z,7.5
2023-05-05T09:45:02.072Z,7.2
2023-05-05T09:50:01.998Z,7.0
2023-05-05T09:55:01.236Z,6.6
2023-05-05T10:00:02.457Z,7.0
2023-05-05T10:05:02.361Z,7.2
2023-05-05T10:10:01.094Z,7.6
2023-05-05T10:15:03.097Z,7.4
2023-05-05T10:20:01.061Z,7.7
2023-05-05T10:25:01.265Z,7.8
2023-05-05T10:30:03.889Z,8.2
2023-05-05T10:35:01.064Z,8.3
2023-05-05T10:40:01.607Z,7.8
2023-05-05T10:45:01.937Z,7.6
2023-05-05T10:50:07.960Z,7.8
2023-05-05T10:55:01.066Z,7.9
2023-05-05T11:00:01.513Z,7.8
2023-05-05T11:05:01.083Z,7.9
2023-05-05T11:10:01.114Z,7.6
2023-05-05T11:15:16.483Z,7.5
2023-05-05T11:20:01.051Z,7.0
2023-05-05T11:30:04.163Z,7.3
2023-05-05T11:35:02.164Z,6.9
2023-05-05T11:40:01.089Z,6.7
2023-05-05T11:45:17.507Z,6.9
2023-05-05T11:50:01.054Z,6.6
2023-05-05T11:55:01.094Z,6.9
2023-05-05T12:00:03.707Z,7.4
2023-05-05T12:10:01.284Z,7.1
2023-05-05T12:15:02.628Z,7.6
2023-05-05T12:20:01.079Z,7.2
2023-05-05T12:25:01.081Z,7.0
2023-05-05T12:30:10.602Z,7.5
2023-05-05T12:35:01.672Z,7.8
2023-05-05T12:40:01.065Z,7.5
2023-05-05T12:55:01.237Z,7.4
2023-05-05T13:00:16.797Z,7.8
2023-05-05T13:05:01.062Z,7.7
2023-05-05T13:10:01.042Z,7.5
2023-05-05T13:15:01.496Z,8.1
2023-05-05T13:20:01.051Z,7.8
2023-05-05T13:25:01.519Z,7.5
2023-05-05T13:30:01.451Z,7.8
2023-05-05T13:40:01.652Z,6.5
2023-05-05T13:45:02.178Z,6.4
2023-05-05T13:50:01.503Z,6.2
2023-05-05T13:55:06.283Z,5.8
2023-05-05T14:00:01.558Z,6.1
2023-05-05T14:05:01.513Z,6.3
2023-05-05T14:10:01.113Z,5.9
2023-05-05T14:15:02.038Z,5.7
2023-05-05T14:20:01.054Z,6.0
2023-05-05T14:25:01.478Z,5.8
2023-05-05T14:30:01.794Z,6.2
2023-05-05T14:35:01.189Z,6.4
2023-05-05T14:45:02.046Z,6.1
2023-05-05T14:50:01.426Z,5.9
2023-05-05T14:55:01.575Z,6.0
2023-05-05T15:00:07.286Z,5.8
2023-05-05T15:05:01.051Z,5.4
2023-05-05T15:10:01.082Z,5.9
2023-05-05T15:15:01.803Z,5.6
2023-05-05T15:20:01.158Z,5.4
2023-05-05T15:25:01.212Z,5.8
2023-05-05T15:30:01.853Z,6.7
2023-05-05T15:35:01.176Z,6.5
2023-05-05T15:40:01.063Z,7.5
2023-05-05T15:45:01.849Z,7.6
2023-05-05T15:50:01.068Z,7.9
2023-05-05T15:55:01.080Z,7.8
2023-05-05T16:00:01.724Z,7.6
2023-05-05T16:05:01.066Z,6.9
2023-05-05T16:10:07.336Z,6.8
2023-05-05T16:15:01.578Z,6.8
2023-05-05T16:20:01.065Z,6.9
2023-05-05T16:30:01.760Z,7.1
2023-05-05T16:35:01.058Z,7.2
2023-05-05T16:40:01.554Z,7.4
2023-05-05T16:45:01.830Z,7.2
2023-05-05T16:50:01.187Z,7.0
2023-05-05T16:55:01.076Z,7.2
2023-05-05T17:00:02.538Z,7.1
2023-05-05T17:05:01.104Z,6.5
2023-05-05T17:10:01.158Z,6.8
2023-05-05T17:16:02.206Z,6.6
2023-05-05T17:21:01.064Z,6.4
2023-05-05T17:36:01.081Z,6.4
2023-05-05T17:41:01.158Z,6.7
2023-05-05T17:46:01.088Z,6.6
2023-05-05T17:51:01.107Z,6.8
2023-05-05T17:56:01.497Z,7.3
2023-05-05T18:01:01.077Z,7.4
2023-05-05T18:06:01.048Z,7.7
2023-05-05T18:11:01.066Z,9.1
2023-05-05T18:16:01.955Z,10.2
2023-05-05T18:21:01.802Z,10.8
2023-05-05T18:26:01.121Z,10.9
2023-05-05T18:31:01.084Z,11.6
2023-05-05T18:46:01.271Z,11.4
2023-05-05T18:51:02.188Z,12.2
2023-05-05T18:56:01.474Z,13.0
2023-05-05T19:01:01.084Z,12.9
2023-05-05T19:06:01.176Z,12.8
2023-05-05T19:11:01.081Z,12.6
2023-05-05T19:16:01.219Z,11.6
2023-05-05T19:21:01.076Z,11.0
2023-05-05T19:26:01.162Z,10.4
2023-05-05T19:31:01.058Z,10.1
2023-05-05T19:36:01.505Z,11.2
2023-05-05T19:41:01.852Z,12.2
2023-05-05T19:51:01.534Z,13.1
2023-05-05T20:01:01.691Z,12.5
2023-05-05T20:06:01.761Z,12.1
2023-05-05T20:11:01.188Z,12.4
2023-05-05T20:16:01.127Z,11.8
2023-05-05T20:21:01.085Z,12.0
2023-05-05T20:26:01.048Z,12.1
2023-05-05T20:31:01.224Z,12.0
2023-05-05T20:36:01.066Z,11.9
2023-05-05T20:41:01.114Z,11.8
2023-05-05T20:46:01.154Z,11.9
2023-05-05T20:51:01.099Z,12.0
2023-05-05T20:56:01.063Z,12.2
2023-05-05T21:01:01.105Z,11.7
2023-05-05T21:11:01.158Z,12.2
2023-05-05T21:16:01.091Z,12.0
2023-05-05T21:21:01.132Z,11.4
2023-05-05T21:26:01.174Z,11.5
2023-05-05T21:31:20.226Z,11.4
2023-05-05T21:36:01.072Z,11.0
2023-05-05T21:41:01.623Z,10.9
2023-05-05T21:46:01.066Z,11.4
2023-05-05T21:51:01.154Z,11.7
2023-05-05T22:01:01.081Z,12.1
2023-05-05T22:06:01.071Z,12.7
2023-05-05T22:11:01.257Z,12.3
2023-05-05T22:16:01.084Z,12.7
2023-05-05T22:21:02.243Z,13.4
2023-05-05T22:26:02.077Z,12.6
2023-05-05T22:31:01.120Z,12.4
2023-05-05T22:36:01.516Z,12.9
2023-05-05T22:41:01.489Z,13.7
2023-05-05T22:46:01.520Z,13.0
2023-05-05T22:51:01.526Z,13.6
2023-05-05T22:56:01.490Z,14.5
2023-05-05T23:01:01.214Z,15.0
2023-05-05T23:06:01.074Z,14.4
2023-05-05T23:11:01.148Z,14.6
2023-05-05T23:16:01.056Z,15.1
2023-05-05T23:21:01.104Z,14.7
2023-05-05T23:26:01.056Z,15.1
2023-05-05T23:31:01.176Z,16.0
2023-05-05T23:36:01.074Z,16.5
2023-05-05T23:41:01.169Z,17.1
2023-05-05T23:46:01.715Z,18.0
2023-05-05T23:51:01.248Z,18.2
2023-05-05T23:56:01.067Z,17.6
